Quick Links (Output Below):   Max & Min Temps   /   Climate Reports   /   Zone Forecasts
River Forecasts   /   Forestry Forecasts   /   Aviation Forecasts   /   Radars   /   Features

Terminal Aerodrome Forecast (Hot Springs)

Pick a Site:
Arkadelphia | El Dorado | Fayetteville | Fort Smith | Harrison | Highfill | Hot Springs | Jonesboro
Little Rock | Monticello | Mountain Home | Pine Bluff | Texarkana
 Forecast 

KHOT 281140Z 2812/2912 15004KT P6SM SCT250
     FM281600 18008G15KT P6SM SCT250
     FM290000 16006KT P6SM SCT250 WS020/19035KT
     FM290700 18005KT P6SM BKN025 WS020/22040KT=


 Latest METARs (Observations) 
How to Decode METARs
14Z KHOT 281353Z AUTO 15003KT 10SM CLR 03/M01 A3035 RMK AO2 SLP279
         T00331006
         
13Z KHOT 281253Z AUTO 15005KT 10SM CLR 02/M01 A3035 RMK AO2 SLP281
         T00221011
         
12Z KHOT 281153Z AUTO VRB03KT 10SM CLR 02/M01 A3036 RMK AO2 SLP284
         T00221011 10028 20000 56010
         
11Z KHOT 281053Z AUTO 15004KT 10SM CLR 03/M01 A3037 RMK AO2 SLP284
         T00281011
         
10Z KHOT 280953Z AUTO 13003KT 10SM CLR 02/M01 A3037 RMK AO2 SLP286
         T00221011
         
09Z KHOT 280853Z AUTO 11004KT 10SM CLR 02/M02 A3039 RMK AO2 SLP293
         T00221017 56007
         
08Z KHOT 280753Z AUTO 13004KT 10SM CLR 02/M02 A3040 RMK AO2 SLP295
         T00221017
         
07Z KHOT 280653Z AUTO VRB03KT 10SM CLR 01/M02 A3040 RMK AO2 SLP297
         T00111022
         
06Z KHOT 280553Z AUTO 07004KT 10SM CLR 01/M03 A3042 RMK AO2 SLP302
         T00061028 10050 20000 401001011 58011
         
05Z KHOT 280453Z AUTO 09006KT 10SM CLR 00/M03 A3043 RMK AO2 SLP305
         T00001028
         
***** Today's Observations (Above) *****


Back to Main Page
http://www.srh.noaa.gov/lzk/qfcst.php

USA.gov is the U.S. government's official web portal to all federal, state and local government web resources and services.